createdAt,value
2023-03-16T00:00:27.192Z,57.47
2023-03-16T00:02:55.466Z,58.39
2023-03-16T00:05:26.059Z,58.89
2023-03-16T00:07:56.694Z,60.05
2023-03-16T00:10:27.698Z,60.91
2023-03-16T00:12:56.703Z,61.55
2023-03-16T00:15:25.832Z,61.70
2023-03-16T00:17:54.989Z,61.71
2023-03-16T00:20:24.007Z,60.71
2023-03-16T00:22:52.175Z,60.48
2023-03-16T00:25:21.879Z,60.18
2023-03-16T00:27:50.096Z,60.27
2023-03-16T00:30:18.648Z,60.14
2023-03-16T00:32:46.810Z,60.01
2023-03-16T00:35:14.946Z,59.54
2023-03-16T00:37:44.372Z,59.79
2023-03-16T00:40:14.268Z,60.91
2023-03-16T00:42:43.931Z,61.81
2023-03-16T00:45:12.716Z,61.90
2023-03-16T00:47:42.343Z,62.26
2023-03-16T00:50:11.881Z,62.81
2023-03-16T00:52:40.085Z,62.45
2023-03-16T00:55:08.720Z,62.37
2023-03-16T00:57:36.912Z,62.00
2023-03-16T01:00:13.115Z,62.52
2023-03-16T01:02:41.303Z,62.48
2023-03-16T01:05:10.687Z,62.63
2023-03-16T01:07:38.881Z,62.47
2023-03-16T01:10:08.281Z,63.36
2023-03-16T01:12:36.607Z,62.28
2023-03-16T01:15:07.238Z,62.74
2023-03-16T01:17:35.681Z,62.57
2023-03-16T01:20:08.204Z,62.46
2023-03-16T01:22:36.376Z,62.71
2023-03-16T01:25:04.624Z,63.19
2023-03-16T01:27:33.044Z,64.03
2023-03-16T01:30:02.427Z,64.10
2023-03-16T01:32:32.040Z,63.30
2023-03-16T01:35:00.363Z,63.87
2023-03-16T01:37:28.606Z,63.51
2023-03-16T01:39:56.863Z,62.99
2023-03-16T01:42:25.318Z,62.76
2023-03-16T01:44:56.248Z,63.14
2023-03-16T01:47:24.877Z,62.83
2023-03-16T01:49:57.282Z,62.97
2023-03-16T01:52:29.795Z,62.64
2023-03-16T01:55:02.203Z,62.56
2023-03-16T01:57:37.065Z,62.60
2023-03-16T02:00:10.924Z,62.25
2023-03-16T02:02:43.742Z,62.91
2023-03-16T02:05:17.060Z,63.43
2023-03-16T02:07:49.415Z,65.00
2023-03-16T02:10:20.399Z,65.65
2023-03-16T02:12:48.843Z,64.94
2023-03-16T02:15:17.348Z,65.02
2023-03-16T02:17:47.187Z,65.11
2023-03-16T02:20:27.857Z,65.40
2023-03-16T02:22:57.116Z,65.24
2023-03-16T02:25:30.569Z,65.60
2023-03-16T02:28:05.731Z,66.20
2023-03-16T02:30:36.024Z,66.31
2023-03-16T02:33:05.407Z,65.81
2023-03-16T02:35:33.771Z,65.67
2023-03-16T02:38:01.948Z,65.40
2023-03-16T02:40:32.033Z,65.23
2023-03-16T02:43:04.561Z,65.95
2023-03-16T02:45:39.172Z,66.16
2023-03-16T02:48:14.773Z,66.74
2023-03-16T02:50:48.358Z,67.36
2023-03-16T02:53:17.377Z,66.90
2023-03-16T02:55:46.568Z,67.24
2023-03-16T02:58:15.429Z,67.65
2023-03-16T03:00:45.483Z,67.69
2023-03-16T03:03:14.397Z,67.79
2023-03-16T03:05:42.763Z,68.37
2023-03-16T03:08:10.933Z,68.41
2023-03-16T03:10:39.512Z,68.48
2023-03-16T03:13:07.980Z,69.68
2023-03-16T03:15:36.463Z,70.29
2023-03-16T03:18:06.154Z,69.90
2023-03-16T03:20:34.370Z,69.92
2023-03-16T03:23:03.174Z,70.30
2023-03-16T03:25:35.016Z,70.96
2023-03-16T03:28:05.718Z,71.58
2023-03-16T03:30:34.206Z,71.57
2023-03-16T03:33:02.867Z,71.70
2023-03-16T03:35:32.982Z,71.48
2023-03-16T03:38:01.237Z,70.63
2023-03-16T03:40:29.952Z,71.12
2023-03-16T03:42:58.516Z,71.76
2023-03-16T03:45:26.843Z,71.48
2023-03-16T03:47:56.312Z,71.44
2023-03-16T03:50:24.493Z,72.08
2023-03-16T03:52:54.021Z,71.07
2023-03-16T03:55:22.160Z,71.26
2023-03-16T03:57:50.376Z,72.19
2023-03-16T04:00:21.044Z,71.99
2023-03-16T04:02:49.461Z,72.21
2023-03-16T04:05:17.835Z,71.75
2023-03-16T04:07:46.079Z,71.72
2023-03-16T04:10:15.848Z,71.43
2023-03-16T04:12:44.026Z,71.91
2023-03-16T04:15:13.830Z,72.49
2023-03-16T04:17:42.382Z,72.57
2023-03-16T04:20:19.112Z,72.40
2023-03-16T04:22:47.890Z,72.07
2023-03-16T04:25:19.012Z,72.16
2023-03-16T04:27:47.242Z,71.83
2023-03-16T04:30:16.402Z,72.10
2023-03-16T04:32:44.628Z,73.13
2023-03-16T04:35:12.904Z,73.41
2023-03-16T04:37:41.467Z,75.87
2023-03-16T04:40:16.932Z,76.12
2023-03-16T04:42:47.726Z,75.92
2023-03-16T04:45:17.668Z,75.57
2023-03-16T04:47:45.955Z,75.96
2023-03-16T04:50:14.926Z,75.16
2023-03-16T04:52:43.109Z,76.27
2023-03-16T04:55:12.190Z,76.37
2023-03-16T04:57:40.447Z,76.57
2023-03-16T05:00:19.217Z,76.53
2023-03-16T05:02:47.649Z,77.12
2023-03-16T05:05:16.417Z,77.55
2023-03-16T05:07:45.323Z,77.62
2023-03-16T05:10:16.589Z,77.14
2023-03-16T05:12:44.889Z,77.70
2023-03-16T05:15:14.836Z,78.15
2023-03-16T05:17:43.714Z,78.75
2023-03-16T05:20:16.186Z,79.25
2023-03-16T05:22:48.311Z,77.07
2023-03-16T05:25:17.645Z,76.88
2023-03-16T05:27:47.094Z,78.32
2023-03-16T05:30:18.003Z,77.61
2023-03-16T05:32:46.882Z,75.92
2023-03-16T05:35:15.586Z,75.31
2023-03-16T05:37:44.509Z,74.84
2023-03-16T05:40:17.390Z,74.17
2023-03-16T05:42:46.691Z,73.52
2023-03-16T05:45:18.398Z,73.12
2023-03-16T05:47:46.570Z,72.90
2023-03-16T05:50:17.076Z,72.98
2023-03-16T05:52:46.170Z,71.83
2023-03-16T05:55:15.829Z,71.21
2023-03-16T05:57:44.582Z,72.38
2023-03-16T06:00:16.761Z,73.07
2023-03-16T06:02:48.446Z,73.43
2023-03-16T06:05:17.631Z,72.69
2023-03-16T06:07:46.481Z,71.96
2023-03-16T06:10:15.814Z,71.59
2023-03-16T06:12:44.249Z,70.45
2023-03-16T06:15:13.426Z,69.74
2023-03-16T06:17:42.559Z,68.92
2023-03-16T06:20:15.025Z,67.82
2023-03-16T06:22:44.721Z,65.84
2023-03-16T06:25:14.649Z,65.37
2023-03-16T06:27:43.564Z,64.41
2023-03-16T06:30:14.525Z,62.78
2023-03-16T06:32:43.473Z,62.29
2023-03-16T06:35:14.824Z,60.18
2023-03-16T06:37:43.089Z,59.53
2023-03-16T06:40:13.505Z,57.78
2023-03-16T06:42:41.841Z,57.75
2023-03-16T06:45:12.166Z,57.54
2023-03-16T06:47:40.313Z,56.49
2023-03-16T06:50:09.176Z,56.71
2023-03-16T06:52:38.788Z,55.67
2023-03-16T06:55:08.082Z,54.54
2023-03-16T06:57:36.255Z,54.45
2023-03-16T07:00:05.010Z,52.77
2023-03-16T07:02:35.831Z,52.64
2023-03-16T07:05:03.986Z,52.28
2023-03-16T07:07:32.495Z,52.96
2023-03-16T07:10:02.103Z,52.44
2023-03-16T07:12:30.254Z,52.89
2023-03-16T07:14:58.413Z,51.53
2023-03-16T07:17:26.588Z,52.28
2023-03-16T07:19:54.743Z,51.45
2023-03-16T07:22:23.277Z,51.79
2023-03-16T07:24:57.273Z,51.05
2023-03-16T07:27:26.927Z,51.49
2023-03-16T07:29:55.061Z,50.53
2023-03-16T07:32:24.145Z,50.12
2023-03-16T07:34:52.347Z,50.22
2023-03-16T07:37:25.443Z,49.68
2023-03-16T07:39:53.970Z,48.91
2023-03-16T07:42:22.798Z,49.33
2023-03-16T07:44:52.488Z,48.66
2023-03-16T07:47:21.191Z,48.69
2023-03-16T07:49:49.308Z,48.20
2023-03-16T07:52:17.454Z,47.66
2023-03-16T07:54:45.757Z,47.57
2023-03-16T07:57:14.008Z,48.03
2023-03-16T07:59:42.720Z,47.65
2023-03-16T08:02:14.266Z,47.38
2023-03-16T08:04:43.339Z,47.67
2023-03-16T08:07:12.162Z,47.02
2023-03-16T08:09:40.547Z,46.15
2023-03-16T08:12:10.109Z,45.32
2023-03-16T08:14:38.877Z,45.53
2023-03-16T08:17:08.569Z,44.93
2023-03-16T08:19:38.847Z,44.57
2023-03-16T08:22:07.381Z,43.37
2023-03-16T08:24:35.582Z,42.75
2023-03-16T08:27:03.824Z,42.37
2023-03-16T08:29:34.677Z,42.87
2023-03-16T08:32:03.162Z,42.04
2023-03-16T08:34:32.009Z,43.79
2023-03-16T08:37:02.049Z,42.73
2023-03-16T08:39:30.331Z,42.19
2023-03-16T08:41:58.485Z,42.62
2023-03-16T08:44:27.647Z,41.77
2023-03-16T08:46:55.889Z,41.18
2023-03-16T08:49:24.295Z,40.11
2023-03-16T08:51:52.537Z,40.34
2023-03-16T08:54:22.474Z,39.84
2023-03-16T08:56:51.887Z,40.07
2023-03-16T08:59:29.745Z,39.72
2023-03-16T09:01:59.112Z,40.80
2023-03-16T09:04:28.495Z,39.76
2023-03-16T09:07:08.389Z,38.64
2023-03-16T09:09:39.606Z,38.85
2023-03-16T09:12:08.659Z,37.23
2023-03-16T09:14:38.688Z,36.50
2023-03-16T09:17:07.841Z,36.13
2023-03-16T09:19:53.330Z,34.25
2023-03-16T09:22:24.210Z,35.48
2023-03-16T09:24:54.022Z,35.21
2023-03-16T09:27:22.725Z,36.44
2023-03-16T09:29:53.170Z,36.73
2023-03-16T09:32:21.842Z,35.37
2023-03-16T09:34:50.032Z,33.94
2023-03-16T09:37:18.337Z,32.53
2023-03-16T09:39:47.541Z,33.64
2023-03-16T09:42:20.974Z,35.20
2023-03-16T09:45:00.733Z,34.84
2023-03-16T09:47:32.122Z,35.27
2023-03-16T09:50:04.310Z,34.05
2023-03-16T09:52:41.821Z,35.00
2023-03-16T09:55:24.161Z,34.39
2023-03-16T09:57:54.743Z,34.20
2023-03-16T10:00:25.582Z,32.46
2023-03-16T10:03:21.557Z,32.56
2023-03-16T10:05:56.174Z,32.20
2023-03-16T10:08:25.750Z,32.48
2023-03-16T10:11:20.173Z,34.62
2023-03-16T10:13:56.531Z,35.10
2023-03-16T10:16:29.512Z,35.29
2023-03-16T10:19:03.075Z,33.38
2023-03-16T10:21:35.084Z,33.96
2023-03-16T10:24:06.859Z,33.11
2023-03-16T10:26:40.962Z,32.23
2023-03-16T10:29:14.676Z,32.38
2023-03-16T10:31:43.745Z,33.94
2023-03-16T10:34:13.197Z,32.83
2023-03-16T10:36:44.212Z,32.68
2023-03-16T10:39:13.827Z,34.87
2023-03-16T10:41:45.305Z,33.13
2023-03-16T10:44:17.088Z,34.24
2023-03-16T10:46:48.718Z,34.27
2023-03-16T10:49:27.323Z,34.40
2023-03-16T10:51:57.390Z,33.79
2023-03-16T10:54:31.788Z,33.39
2023-03-16T10:57:00.608Z,33.88
2023-03-16T10:59:35.592Z,34.42
2023-03-16T11:02:09.482Z,32.16
2023-03-16T11:04:38.190Z,33.46
2023-03-16T11:07:10.057Z,32.50
2023-03-16T11:09:38.503Z,32.85
2023-03-16T11:12:17.333Z,31.45
2023-03-16T11:14:46.978Z,31.30
2023-03-16T11:17:18.117Z,31.97
2023-03-16T11:19:54.616Z,31.49
2023-03-16T11:22:25.665Z,32.73
2023-03-16T11:24:59.421Z,32.98
2023-03-16T11:27:35.352Z,31.79
2023-03-16T11:30:15.139Z,31.29
2023-03-16T11:32:53.560Z,34.68
2023-03-16T11:35:28.797Z,34.85
2023-03-16T11:38:09.712Z,31.29
2023-03-16T11:40:49.068Z,30.98
2023-03-16T11:43:41.884Z,32.17
2023-03-16T11:46:17.627Z,29.98
2023-03-16T11:48:54.645Z,29.50
2023-03-16T11:51:41.026Z,29.98
2023-03-16T11:54:26.106Z,31.47
2023-03-16T11:56:58.720Z,30.81
2023-03-16T12:00:01.171Z,30.30
2023-03-16T12:02:51.508Z,29.59
2023-03-16T12:05:46.014Z,29.93
2023-03-16T12:08:31.746Z,28.82
2023-03-16T12:11:04.720Z,29.50
2023-03-16T12:13:44.698Z,29.40
2023-03-16T12:16:21.309Z,26.45
2023-03-16T12:18:56.136Z,27.46
2023-03-16T12:21:28.293Z,26.57
2023-03-16T12:24:00.652Z,26.79
2023-03-16T12:26:33.191Z,28.00
2023-03-16T12:29:05.860Z,28.17
2023-03-16T12:31:44.277Z,27.36
2023-03-16T12:34:24.464Z,27.30
2023-03-16T12:37:15.517Z,26.94
2023-03-16T12:40:07.902Z,27.14
2023-03-16T12:43:06.846Z,26.77
2023-03-16T12:45:41.348Z,25.85
2023-03-16T12:48:22.165Z,25.79
2023-03-16T12:50:54.720Z,26.72
2023-03-16T12:53:40.510Z,24.59
2023-03-16T12:56:12.057Z,23.62
2023-03-16T12:58:47.185Z,25.46
2023-03-16T13:01:17.729Z,25.40
2023-03-16T13:03:49.706Z,25.00
2023-03-16T13:06:23.811Z,23.42
2023-03-16T13:08:57.951Z,23.58
2023-03-16T13:11:27.241Z,22.57
2023-03-16T13:14:11.130Z,23.31
2023-03-16T13:16:41.018Z,22.29
2023-03-16T13:19:26.224Z,20.80
2023-03-16T13:22:07.092Z,21.74
2023-03-16T13:24:41.306Z,22.39
2023-03-16T13:27:21.577Z,22.76
2023-03-16T13:29:58.880Z,21.99
2023-03-16T13:32:31.528Z,22.62
2023-03-16T13:35:02.395Z,22.20
2023-03-16T13:37:32.453Z,22.08
2023-03-16T13:40:04.678Z,24.12
2023-03-16T13:42:33.913Z,24.29
2023-03-16T13:45:13.494Z,23.08
2023-03-16T13:47:44.729Z,22.45
2023-03-16T13:50:15.055Z,22.93
2023-03-16T13:52:51.784Z,23.77
2023-03-16T13:55:26.895Z,22.40
2023-03-16T13:57:55.185Z,23.23
2023-03-16T14:00:26.589Z,21.84
2023-03-16T14:02:57.446Z,21.24
2023-03-16T14:05:28.495Z,21.17
2023-03-16T14:08:00.689Z,22.30
2023-03-16T14:10:33.345Z,20.68
2023-03-16T14:13:09.306Z,19.71
2023-03-16T14:15:39.539Z,19.99
2023-03-16T14:18:16.549Z,19.88
2023-03-16T14:20:44.971Z,19.35
2023-03-16T14:23:22.284Z,20.23
2023-03-16T14:25:50.892Z,19.55
2023-03-16T14:28:22.514Z,19.59
2023-03-16T14:30:55.885Z,19.26
2023-03-16T14:33:31.168Z,18.02
2023-03-16T14:36:01.110Z,16.76
2023-03-16T14:38:33.588Z,16.06
2023-03-16T14:41:05.198Z,15.78
2023-03-16T14:43:36.783Z,14.89
2023-03-16T14:46:07.532Z,15.17
2023-03-16T14:48:36.819Z,16.10
2023-03-16T14:51:06.527Z,17.24
2023-03-16T14:53:36.241Z,17.64
2023-03-16T14:56:04.518Z,18.07
2023-03-16T14:58:34.260Z,18.21
2023-03-16T15:01:02.426Z,20.06
2023-03-16T15:03:34.602Z,19.33
2023-03-16T15:06:03.902Z,18.53
2023-03-16T15:08:37.186Z,17.92
2023-03-16T15:11:08.699Z,17.42
2023-03-16T15:13:53.045Z,15.20
2023-03-16T15:16:23.376Z,14.44
2023-03-16T15:18:52.065Z,14.87
2023-03-16T15:21:24.300Z,14.88
2023-03-16T15:23:52.519Z,14.00
2023-03-16T15:26:26.369Z,14.20
2023-03-16T15:28:54.641Z,15.23
2023-03-16T15:31:23.348Z,16.79
2023-03-16T15:33:51.656Z,17.14
2023-03-16T15:36:22.385Z,16.43
2023-03-16T15:38:52.790Z,17.33
2023-03-16T15:41:22.795Z,16.15
2023-03-16T15:43:52.824Z,15.01
2023-03-16T15:46:21.381Z,15.13
2023-03-16T15:48:49.585Z,15.81
2023-03-16T15:51:23.030Z,16.15
2023-03-16T15:53:54.842Z,17.36
2023-03-16T15:56:30.108Z,19.08
2023-03-16T15:59:02.195Z,20.99
2023-03-16T16:01:35.016Z,22.07
2023-03-16T16:04:03.648Z,23.33
2023-03-16T16:06:32.057Z,24.57
2023-03-16T16:09:00.342Z,24.92
2023-03-16T16:11:30.071Z,25.22
2023-03-16T16:13:59.482Z,26.27
2023-03-16T16:16:29.575Z,26.47
2023-03-16T16:18:58.284Z,26.80
2023-03-16T16:21:29.190Z,27.63
2023-03-16T16:23:57.508Z,27.45
2023-03-16T16:26:41.515Z,27.82
2023-03-16T16:29:18.454Z,28.16
2023-03-16T16:31:46.870Z,28.56
2023-03-16T16:34:17.278Z,28.93
2023-03-16T16:36:45.793Z,29.32
2023-03-16T16:39:14.172Z,29.02
2023-03-16T16:41:44.332Z,29.59
2023-03-16T16:44:19.733Z,29.15
2023-03-16T16:46:50.467Z,29.41
2023-03-16T16:49:20.872Z,28.89
2023-03-16T16:51:49.197Z,29.12
2023-03-16T16:54:19.071Z,29.56
2023-03-16T16:56:48.143Z,30.04
2023-03-16T16:59:21.343Z,30.44
2023-03-16T17:01:52.049Z,30.19
2023-03-16T17:04:23.377Z,31.53
2023-03-16T17:06:55.498Z,32.79
2023-03-16T17:09:25.057Z,32.67
2023-03-16T17:11:56.135Z,30.83
2023-03-16T17:14:28.428Z,32.16
2023-03-16T17:16:57.177Z,32.50
2023-03-16T17:19:27.420Z,32.03
2023-03-16T17:21:57.744Z,31.75
2023-03-16T17:24:26.963Z,31.67
2023-03-16T17:26:58.916Z,32.40
2023-03-16T17:29:31.673Z,31.77
2023-03-16T17:32:00.946Z,31.99
2023-03-16T17:34:30.940Z,32.77
2023-03-16T17:36:59.141Z,32.03
2023-03-16T17:39:29.413Z,31.49
2023-03-16T17:41:59.798Z,31.97
2023-03-16T17:44:34.188Z,32.45
2023-03-16T17:47:02.740Z,32.50
2023-03-16T17:49:31.984Z,32.09
2023-03-16T17:52:00.306Z,32.33
2023-03-16T17:54:29.038Z,31.83
2023-03-16T17:56:57.255Z,32.05
2023-03-16T17:59:25.957Z,32.29
2023-03-16T18:01:55.764Z,32.22
2023-03-16T18:04:26.105Z,32.06
2023-03-16T18:06:55.546Z,32.95
2023-03-16T18:09:23.870Z,33.05
2023-03-16T18:11:52.942Z,34.38
2023-03-16T18:14:26.521Z,34.08
2023-03-16T18:16:56.280Z,35.00
2023-03-16T18:19:25.893Z,36.04
2023-03-16T18:21:54.828Z,35.85
2023-03-16T18:24:26.619Z,36.86
2023-03-16T18:26:55.469Z,37.52
2023-03-16T18:29:24.169Z,36.70
2023-03-16T18:31:58.356Z,35.75
2023-03-16T18:34:32.345Z,36.62
2023-03-16T18:37:06.244Z,37.13
2023-03-16T18:39:34.974Z,36.31
2023-03-16T18:42:03.871Z,35.25
2023-03-16T18:44:33.412Z,35.70
2023-03-16T18:47:04.992Z,35.70
2023-03-16T18:49:35.730Z,37.80
2023-03-16T18:52:04.934Z,37.61
2023-03-16T18:54:36.396Z,39.43
2023-03-16T18:57:05.705Z,39.40
2023-03-16T18:59:33.934Z,39.43
2023-03-16T19:02:03.680Z,39.72
2023-03-16T19:04:32.985Z,39.24
2023-03-16T19:07:01.260Z,40.27
2023-03-16T19:09:31.217Z,39.65
2023-03-16T19:11:59.971Z,39.25
2023-03-16T19:14:32.105Z,40.39
2023-03-16T19:17:00.540Z,40.90
2023-03-16T19:19:30.208Z,40.04
2023-03-16T19:22:04.066Z,39.05
2023-03-16T19:24:36.855Z,40.17
2023-03-16T19:27:08.676Z,40.40
2023-03-16T19:29:37.005Z,39.69
2023-03-16T19:32:05.434Z,40.35
2023-03-16T19:34:35.132Z,39.30
2023-03-16T19:37:03.449Z,41.06
2023-03-16T19:39:32.057Z,41.09
2023-03-16T19:42:09.435Z,41.50
2023-03-16T19:44:39.079Z,41.04
2023-03-16T19:47:24.523Z,41.24
2023-03-16T19:49:59.140Z,41.60
2023-03-16T19:52:33.037Z,42.55
2023-03-16T19:55:01.594Z,41.21
2023-03-16T19:57:30.389Z,43.30
2023-03-16T20:00:00.331Z,42.91
2023-03-16T20:02:32.886Z,42.22
2023-03-16T20:05:03.201Z,41.90
2023-03-16T20:07:38.344Z,41.73
2023-03-16T20:10:08.248Z,41.21
2023-03-16T20:12:43.488Z,41.76
2023-03-16T20:15:17.289Z,41.79
2023-03-16T20:17:49.561Z,42.04
2023-03-16T20:20:29.349Z,42.48
2023-03-16T20:23:00.427Z,41.57
2023-03-16T20:25:32.810Z,41.93
2023-03-16T20:28:04.492Z,42.99
2023-03-16T20:30:33.883Z,44.35
2023-03-16T20:33:04.195Z,43.84
2023-03-16T20:35:34.552Z,43.27
2023-03-16T20:38:03.624Z,43.60
2023-03-16T20:40:35.749Z,43.54
2023-03-16T20:43:24.770Z,44.62
2023-03-16T20:45:54.394Z,44.77
2023-03-16T20:48:22.825Z,44.94
2023-03-16T20:50:53.397Z,44.39
2023-03-16T20:53:22.088Z,44.34
2023-03-16T20:55:50.787Z,43.92
2023-03-16T20:58:22.162Z,44.13
2023-03-16T21:00:52.333Z,45.51
2023-03-16T21:03:23.252Z,45.45
2023-03-16T21:05:54.438Z,44.87
2023-03-16T21:08:22.754Z,44.04
2023-03-16T21:10:52.827Z,44.26
2023-03-16T21:13:23.091Z,43.61
2023-03-16T21:15:51.601Z,43.51
2023-03-16T21:18:22.292Z,44.49
2023-03-16T21:20:53.116Z,43.72
2023-03-16T21:23:23.382Z,43.16
2023-03-16T21:25:54.967Z,43.17
2023-03-16T21:28:25.437Z,43.34
2023-03-16T21:30:56.308Z,44.98
2023-03-16T21:33:30.317Z,44.38
2023-03-16T21:36:01.409Z,44.72
2023-03-16T21:38:31.665Z,44.34
2023-03-16T21:41:00.297Z,43.50
2023-03-16T21:43:29.121Z,43.58
2023-03-16T21:45:58.250Z,44.42
2023-03-16T21:48:32.058Z,44.00
2023-03-16T21:51:01.701Z,45.36
2023-03-16T21:53:33.524Z,45.79
2023-03-16T21:56:02.027Z,44.99
2023-03-16T21:58:30.466Z,45.65
2023-03-16T22:00:59.506Z,44.82
2023-03-16T22:03:37.830Z,44.88
2023-03-16T22:06:17.523Z,44.91
2023-03-16T22:08:45.915Z,45.22
2023-03-16T22:11:17.460Z,45.77
2023-03-16T22:13:46.582Z,45.90
2023-03-16T22:16:17.334Z,46.72
2023-03-16T22:18:47.200Z,46.33
2023-03-16T22:21:28.988Z,47.13
2023-03-16T22:23:59.340Z,47.41
2023-03-16T22:26:28.760Z,46.98
2023-03-16T22:28:57.900Z,47.16
2023-03-16T22:31:32.947Z,47.70
2023-03-16T22:34:02.865Z,47.94
2023-03-16T22:36:34.533Z,48.41
2023-03-16T22:39:08.224Z,47.62
2023-03-16T22:41:36.496Z,47.71
2023-03-16T22:44:04.717Z,47.44
2023-03-16T22:46:32.822Z,47.80
2023-03-16T22:49:01.264Z,47.88
2023-03-16T22:51:34.420Z,48.04
2023-03-16T22:54:05.085Z,48.27
2023-03-16T22:56:34.142Z,49.54
2023-03-16T22:59:04.781Z,50.58
2023-03-16T23:01:36.084Z,49.74
2023-03-16T23:04:04.367Z,49.76
2023-03-16T23:06:34.041Z,50.34
2023-03-16T23:09:02.435Z,50.22
2023-03-16T23:11:33.130Z,50.16
2023-03-16T23:14:01.890Z,50.30
2023-03-16T23:16:34.577Z,51.24
2023-03-16T23:19:04.418Z,51.31
2023-03-16T23:21:35.427Z,51.31
2023-03-16T23:24:04.633Z,50.72
2023-03-16T23:26:33.640Z,51.36
2023-03-16T23:29:01.949Z,51.36
2023-03-16T23:31:30.924Z,51.70
2023-03-16T23:33:59.113Z,51.95
2023-03-16T23:36:27.565Z,51.32
2023-03-16T23:38:57.153Z,51.65
2023-03-16T23:41:26.296Z,51.78
2023-03-16T23:43:55.272Z,52.12
2023-03-16T23:46:25.752Z,51.91
2023-03-16T23:48:57.089Z,52.15
2023-03-16T23:51:28.607Z,52.20
2023-03-16T23:54:00.112Z,52.40
2023-03-16T23:56:28.265Z,53.03
2023-03-16T23:58:56.430Z,52.87
